Time;durP1;ratioP1;P1;durP2;ratioP2;P2;SDS_P1;SDS_P2;PMS_P1;PMS_P2;Temp;Humidity;BMP_temperature;BMP_pressure;BME280_temperature;BME280_humidity;BME280_pressure;Samples;Min_cycle;Max_cycle;Signal;HPM_P1;HPM_P2
2022/01/04 00:02:13;;;;;;;33.17;12.13;;;9.10;99.90;;;;;;5091192;28;20050;-77
2022/01/04 00:04:39;;;;;;;27.50;13.23;;;9.10;99.90;;;;;;5091418;28;20044;-77
2022/01/04 00:07:05;;;;;;;29.15;13.75;;;9.00;99.90;;;;;;5094705;28;20453;-77
2022/01/04 00:09:30;;;;;;;30.88;15.20;;;9.00;99.90;;;;;;5090729;28;20534;-78
2022/01/04 00:13:20;;;;;;;32.92;13.95;;;9.00;99.90;;;;;;5074985;28;20103;-78
2022/01/04 00:14:42;;;;;;;39.58;15.38;;;9.00;99.90;;;;;;5074695;28;20039;-77
2022/01/04 00:17:07;;;;;;;28.60;13.68;;;9.00;99.90;;;;;;5073497;28;20390;-77
2022/01/04 00:19:33;;;;;;;26.83;13.68;;;8.90;99.90;;;;;;5074710;28;20043;-77
2022/01/04 00:22:00;;;;;;;29.83;13.70;;;9.00;99.90;;;;;;5074472;28;20033;-77
2022/01/04 00:24:25;;;;;;;29.75;14.63;;;8.90;99.90;;;;;;5074489;28;20070;-77
2022/01/04 00:26:51;;;;;;;36.03;15.38;;;9.00;99.90;;;;;;5073376;28;20111;-77
2022/01/04 00:29:16;;;;;;;33.17;15.15;;;9.00;99.90;;;;;;5073096;28;20025;-78
2022/01/04 00:31:42;;;;;;;30.83;15.73;;;9.00;99.90;;;;;;5074510;28;20110;-77
2022/01/04 00:34:08;;;;;;;31.75;15.10;;;9.00;99.90;;;;;;5074331;28;20027;-78
2022/01/04 00:36:33;;;;;;;30.63;14.35;;;9.00;99.90;;;;;;5074466;28;20090;-77
2022/01/04 00:38:59;;;;;;;31.48;15.02;;;9.10;99.90;;;;;;5086575;28;20049;-77
2022/01/04 00:41:24;;;;;;;30.27;14.85;;;9.10;99.90;;;;;;5094631;28;20035;-77
2022/01/04 00:43:50;;;;;;;28.98;14.95;;;9.10;99.90;;;;;;5094385;28;20077;-77
2022/01/04 00:46:17;;;;;;;31.15;14.70;;;9.10;99.90;;;;;;5094986;28;20032;-77
2022/01/04 00:51:28;;;;;;;29.65;14.40;;;9.00;99.90;;;;;;5094619;28;20036;-77
2022/01/04 00:53:53;;;;;;;28.35;14.90;;;9.10;99.90;;;;;;5094205;28;20028;-78
2022/01/04 00:56:19;;;;;;;28.70;14.25;;;9.00;99.90;;;;;;5094406;28;20129;-77
2022/01/04 00:58:45;;;;;;;31.00;14.80;;;9.00;99.90;;;;;;5076309;28;20355;-78
2022/01/04 01:01:10;;;;;;;25.95;14.90;;;9.00;99.90;;;;;;5104057;28;20107;-77
2022/01/04 01:03:36;;;;;;;29.80;15.05;;;9.00;99.90;;;;;;5114655;28;20031;-77
2022/01/04 01:06:01;;;;;;;26.45;14.98;;;9.10;99.90;;;;;;5114508;28;20039;-77
2022/01/04 01:08:27;;;;;;;32.63;15.10;;;9.00;99.90;;;;;;5113916;28;20359;-77
2022/01/04 01:10:52;;;;;;;27.00;14.50;;;9.00;99.90;;;;;;5076987;28;20034;-77
2022/01/04 01:13:19;;;;;;;29.75;14.25;;;9.00;99.90;;;;;;5073658;28;20032;-77
2022/01/04 01:15:46;;;;;;;28.35;15.18;;;9.00;99.90;;;;;;5073937;28;20055;-77
2022/01/04 01:18:14;;;;;;;39.88;16.60;;;9.00;99.90;;;;;;5073382;28;20387;-77
2022/01/04 01:20:40;;;;;;;27.63;13.85;;;9.10;99.90;;;;;;5073680;28;20370;-77
2022/01/04 01:23:05;;;;;;;36.20;14.63;;;9.10;99.90;;;;;;5073681;28;20039;-78
2022/01/04 01:25:31;;;;;;;27.23;14.38;;;9.10;99.90;;;;;;5073584;28;20116;-77
2022/01/04 01:27:57;;;;;;;27.90;13.35;;;9.10;99.90;;;;;;5073525;28;20024;-77
2022/01/04 01:30:24;;;;;;;30.90;14.40;;;9.20;99.90;;;;;;5073451;28;20020;-77
2022/01/04 01:32:51;;;;;;;25.15;13.63;;;9.20;99.90;;;;;;5073568;28;20048;-77
2022/01/04 01:35:17;;;;;;;27.55;14.32;;;9.20;99.90;;;;;;5073229;28;20048;-77
2022/01/04 01:37:43;;;;;;;24.63;13.77;;;9.20;99.90;;;;;;5075196;28;20111;-78
2022/01/04 01:40:09;;;;;;;33.28;15.25;;;9.20;99.90;;;;;;5093528;28;20103;-77
2022/01/04 01:42:34;;;;;;;23.27;13.50;;;9.20;99.90;;;;;;5093466;28;20094;-77
2022/01/04 01:45:00;;;;;;;29.00;13.82;;;9.20;99.90;;;;;;5075097;28;20071;-77
2022/01/04 01:47:26;;;;;;;25.60;12.98;;;9.20;99.90;;;;;;5093469;28;20027;-77
2022/01/04 01:49:51;;;;;;;21.88;12.95;;;9.10;99.90;;;;;;5093257;28;20024;-77
2022/01/04 01:52:18;;;;;;;26.25;13.23;;;9.20;99.90;;;;;;5093257;28;20021;-77
2022/01/04 01:54:43;;;;;;;28.73;13.75;;;9.20;99.90;;;;;;5074925;28;20417;-78
2022/01/04 01:57:09;;;;;;;26.30;13.82;;;9.10;99.90;;;;;;5093215;28;20043;-77
2022/01/04 01:59:35;;;;;;;25.90;13.43;;;9.10;99.90;;;;;;5093099;28;20393;-77
2022/01/04 02:02:01;;;;;;;26.48;13.32;;;9.20;99.90;;;;;;5093259;28;20051;-78
2022/01/04 02:04:26;;;;;;;25.60;12.88;;;9.10;99.90;;;;;;5093009;28;20060;-78
2022/01/04 02:06:52;;;;;;;31.25;13.43;;;9.10;99.90;;;;;;5092946;28;20483;-77
2022/01/04 02:09:18;;;;;;;23.63;13.00;;;9.10;99.90;;;;;;5092723;28;20073;-77
2022/01/04 02:11:44;;;;;;;30.70;14.05;;;9.10;99.90;;;;;;5092951;28;20043;-77
2022/01/04 02:14:09;;;;;;;33.10;14.68;;;9.10;99.90;;;;;;5092765;28;20016;-77
2022/01/04 02:16:35;;;;;;;24.58;14.00;;;9.10;99.90;;;;;;5093018;28;20150;-77
2022/01/04 02:19:02;;;;;;;23.20;14.02;;;9.00;99.90;;;;;;5074356;28;20033;-77
2022/01/04 02:21:29;;;;;;;24.88;15.02;;;9.00;99.90;;;;;;5092646;28;20025;-77
2022/01/04 02:23:54;;;;;;;35.17;13.93;;;9.00;99.90;;;;;;5092718;28;20024;-78
2022/01/04 02:26:21;;;;;;;26.80;14.13;;;9.10;99.90;;;;;;5092715;28;20184;-78
2022/01/04 02:28:47;;;;;;;26.02;13.98;;;9.10;99.90;;;;;;5092031;28;20035;-78
2022/01/04 02:31:12;;;;;;;27.77;14.57;;;9.00;99.90;;;;;;5092753;28;20024;-78
2022/01/04 02:33:38;;;;;;;29.67;14.70;;;9.00;99.90;;;;;;5092737;28;20030;-78
2022/01/04 02:36:04;;;;;;;30.75;15.80;;;9.10;99.90;;;;;;5092202;28;20060;-78
2022/01/04 02:38:30;;;;;;;26.42;14.98;;;9.10;99.90;;;;;;5083782;28;20032;-77
2022/01/04 02:40:55;;;;;;;37.05;16.27;;;9.00;99.90;;;;;;5074285;28;20119;-77
2022/01/04 02:43:21;;;;;;;31.70;14.68;;;9.00;99.90;;;;;;5092451;28;20137;-77
2022/01/04 02:45:46;;;;;;;25.95;15.77;;;9.10;99.90;;;;;;5092399;28;20063;-78
2022/01/04 02:48:12;;;;;;;24.65;15.27;;;9.10;99.90;;;;;;5074137;28;20081;-77
2022/01/04 02:50:38;;;;;;;28.52;14.80;;;9.00;99.90;;;;;;5092165;28;20024;-77
2022/01/04 02:53:03;;;;;;;27.63;15.82;;;9.10;99.90;;;;;;5092237;28;20418;-75
2022/01/04 02:55:29;;;;;;;31.85;16.63;;;9.10;99.90;;;;;;5073924;28;20032;-77
2022/01/04 02:57:54;;;;;;;24.52;15.82;;;9.10;99.90;;;;;;5092386;28;20040;-78
2022/01/04 03:00:20;;;;;;;27.70;15.88;;;9.00;99.90;;;;;;5092126;28;20032;-77
2022/01/04 03:02:46;;;;;;;32.10;16.58;;;9.10;99.90;;;;;;5073900;28;20509;-77
2022/01/04 03:05:12;;;;;;;29.45;15.82;;;9.10;99.90;;;;;;5073826;28;20024;-77
2022/01/04 03:07:38;;;;;;;26.95;15.10;;;9.00;99.90;;;;;;5092210;28;20065;-77
2022/01/04 03:10:05;;;;;;;24.92;14.27;;;9.00;99.90;;;;;;5091698;28;20043;-78
2022/01/04 03:12:31;;;;;;;28.60;15.25;;;9.00;99.90;;;;;;5091968;28;20123;-77
2022/01/04 03:15:00;;;;;;;24.90;15.27;;;9.10;99.90;;;;;;5091958;28;20186;-78
2022/01/04 03:17:26;;;;;;;22.20;14.88;;;9.10;99.90;;;;;;5092075;28;20055;-78
2022/01/04 03:19:51;;;;;;;24.95;15.35;;;9.00;99.90;;;;;;5092009;28;20028;-77
2022/01/04 03:22:17;;;;;;;24.67;14.82;;;9.00;99.90;;;;;;5091946;28;20370;-77
2022/01/04 03:24:43;;;;;;;28.42;15.30;;;9.00;99.90;;;;;;5073415;28;20039;-78
2022/01/04 03:27:09;;;;;;;25.33;16.13;;;9.00;99.90;;;;;;5091909;28;20020;-78
2022/01/04 03:29:35;;;;;;;26.25;15.15;;;9.00;99.90;;;;;;5091676;28;20028;-78
2022/01/04 03:32:01;;;;;;;28.52;17.38;;;9.00;99.90;;;;;;5091937;28;20489;-77
2022/01/04 03:34:26;;;;;;;29.13;16.80;;;9.00;99.90;;;;;;5091472;28;20091;-78
2022/01/04 03:36:52;;;;;;;32.58;16.85;;;9.00;99.90;;;;;;5091808;28;20063;-77
2022/01/04 03:39:18;;;;;;;27.95;16.40;;;8.90;99.90;;;;;;5076530;28;20530;-78
2022/01/04 03:41:46;;;;;;;25.88;16.25;;;8.90;99.90;;;;;;5075551;28;20086;-78
2022/01/04 03:44:18;;;;;;;33.47;17.80;;;8.90;99.90;;;;;;5075389;28;20020;-77
2022/01/04 03:46:45;;;;;;;31.88;17.42;;;8.80;99.90;;;;;;5075611;28;20028;-76
2022/01/04 03:49:11;;;;;;;32.67;17.48;;;8.90;99.90;;;;;;5075319;28;20036;-77
2022/01/04 03:51:36;;;;;;;29.63;17.23;;;8.80;99.90;;;;;;5075496;28;20024;-77
2022/01/04 03:54:02;;;;;;;30.23;18.15;;;8.80;99.90;;;;;;5075090;28;20379;-77
2022/01/04 03:56:28;;;;;;;33.10;18.48;;;8.80;99.90;;;;;;5075441;28;20035;-77
2022/01/04 03:58:54;;;;;;;33.40;18.13;;;8.80;99.90;;;;;;5075076;28;20096;-77
2022/01/04 04:01:19;;;;;;;36.67;19.90;;;8.90;99.90;;;;;;5075212;28;20033;-77
2022/01/04 04:03:45;;;;;;;29.77;18.70;;;8.80;99.90;;;;;;5074998;28;20099;-77
2022/01/04 04:06:11;;;;;;;29.70;18.42;;;8.80;99.90;;;;;;5075015;28;20028;-77
2022/01/04 04:08:36;;;;;;;37.17;20.33;;;8.80;99.90;;;;;;5075013;28;20025;-77
2022/01/04 04:11:02;;;;;;;35.33;19.75;;;8.80;99.90;;;;;;5074887;28;20494;-77
2022/01/04 04:13:28;;;;;;;31.40;19.75;;;8.80;99.90;;;;;;5074851;28;20016;-77
2022/01/04 04:15:54;;;;;;;36.80;19.50;;;8.80;99.90;;;;;;5074948;28;20524;-77
2022/01/04 04:18:19;;;;;;;36.58;19.38;;;8.80;99.90;;;;;;5074862;28;20025;-77
2022/01/04 04:20:45;;;;;;;30.20;18.05;;;8.80;99.90;;;;;;5074862;28;20029;-77
2022/01/04 04:23:11;;;;;;;30.83;18.80;;;8.90;99.90;;;;;;5074756;28;20053;-77
2022/01/04 04:25:37;;;;;;;29.73;19.27;;;8.80;99.90;;;;;;5074593;28;20134;-77
2022/01/04 04:28:03;;;;;;;38.05;20.15;;;8.80;99.90;;;;;;5074654;28;20052;-77
2022/01/04 04:30:29;;;;;;;36.05;20.05;;;8.80;99.90;;;;;;5074467;28;20045;-77
2022/01/04 04:32:55;;;;;;;32.45;19.70;;;8.80;99.90;;;;;;5074524;28;20498;-77
2022/01/04 04:35:22;;;;;;;32.40;20.17;;;8.80;99.90;;;;;;5074358;28;20435;-77
2022/01/04 04:37:48;;;;;;;34.75;19.98;;;8.80;99.90;;;;;;5077232;28;20030;-77
2022/01/04 04:40:14;;;;;;;37.17;20.08;;;8.80;99.90;;;;;;5094606;28;20111;-77
2022/01/04 04:42:40;;;;;;;33.85;19.85;;;8.80;99.90;;;;;;5094724;28;20036;-77
2022/01/04 04:45:07;;;;;;;39.83;20.73;;;8.80;99.90;;;;;;5094500;28;20024;-77
2022/01/04 04:47:32;;;;;;;36.78;19.92;;;8.80;99.90;;;;;;5094605;28;20099;-77
2022/01/04 04:49:58;;;;;;;36.38;20.55;;;8.80;99.90;;;;;;5094421;28;20123;-77
2022/01/04 04:52:24;;;;;;;42.08;20.42;;;8.80;99.90;;;;;;5093416;28;20024;-77
2022/01/04 04:54:49;;;;;;;41.50;20.05;;;8.80;99.90;;;;;;5094328;28;20108;-77
2022/01/04 04:57:15;;;;;;;35.97;20.20;;;8.80;99.90;;;;;;5094348;28;20028;-77
2022/01/04 04:59:41;;;;;;;33.65;20.38;;;8.80;99.90;;;;;;5094336;28;20047;-77
2022/01/04 05:02:07;;;;;;;33.95;20.55;;;8.80;99.90;;;;;;5094314;28;20066;-77
2022/01/04 05:04:34;;;;;;;36.13;21.38;;;8.80;99.90;;;;;;5094047;28;20075;-77
2022/01/04 05:07:00;;;;;;;43.40;23.17;;;8.70;99.90;;;;;;5094262;28;20470;-77
2022/01/04 05:09:25;;;;;;;40.13;21.45;;;8.70;99.90;;;;;;5094019;28;20020;-78
2022/01/04 05:11:51;;;;;;;34.17;22.23;;;8.70;99.90;;;;;;5094144;28;20446;-77
2022/01/04 05:14:17;;;;;;;38.70;20.77;;;8.70;99.90;;;;;;5094005;28;20448;-77
2022/01/04 05:16:43;;;;;;;31.92;20.50;;;8.70;99.90;;;;;;5094168;28;20020;-77
2022/01/04 05:19:08;;;;;;;35.53;20.88;;;8.80;99.90;;;;;;5093911;28;20492;-77
2022/01/04 05:21:35;;;;;;;34.90;20.30;;;8.70;99.90;;;;;;5093994;28;20533;-77
2022/01/04 05:24:00;;;;;;;37.47;20.67;;;8.80;99.90;;;;;;5093808;28;20024;-78
2022/01/04 05:26:26;;;;;;;35.88;20.48;;;8.80;99.90;;;;;;5093804;28;20024;-78
2022/01/04 05:28:51;;;;;;;35.08;19.05;;;8.80;99.90;;;;;;5093788;28;20399;-77
2022/01/04 05:31:17;;;;;;;36.95;19.75;;;8.70;99.90;;;;;;5093680;28;20028;-77
2022/01/04 05:33:43;;;;;;;33.65;19.88;;;8.70;99.90;;;;;;5093693;28;20024;-77
2022/01/04 05:36:08;;;;;;;33.55;20.13;;;8.70;99.90;;;;;;5093388;28;20075;-77
2022/01/04 05:38:34;;;;;;;33.90;19.73;;;8.70;99.90;;;;;;5084863;28;20086;-78
2022/01/04 05:41:00;;;;;;;30.83;18.92;;;8.70;99.90;;;;;;5093569;28;20099;-77
2022/01/04 05:43:25;;;;;;;33.05;19.35;;;8.70;99.90;;;;;;5093496;28;20042;-77
2022/01/04 05:45:51;;;;;;;30.58;20.02;;;8.70;99.90;;;;;;5093358;28;20028;-78
2022/01/04 05:48:20;;;;;;;32.70;19.17;;;8.70;99.90;;;;;;5093377;28;20028;-77
2022/01/04 05:50:46;;;;;;;35.15;19.88;;;8.70;99.90;;;;;;5093223;28;20115;-77
2022/01/04 05:53:11;;;;;;;35.15;20.10;;;8.70;99.90;;;;;;5093306;28;20016;-77
2022/01/04 05:55:37;;;;;;;34.60;19.73;;;8.70;99.90;;;;;;5093253;28;20478;-77
2022/01/04 05:58:02;;;;;;;33.70;20.55;;;8.70;99.90;;;;;;5093085;28;20529;-77
2022/01/04 06:00:28;;;;;;;36.25;20.48;;;8.70;99.90;;;;;;5093309;28;20036;-77
2022/01/04 06:02:55;;;;;;;36.60;19.55;;;8.70;99.90;;;;;;5092253;28;20470;-77
2022/01/04 06:05:20;;;;;;;30.75;19.23;;;8.70;99.90;;;;;;5092605;28;20410;-77
2022/01/04 06:07:46;;;;;;;33.17;19.83;;;8.60;99.90;;;;;;5092972;28;20028;-77
2022/01/04 06:10:13;;;;;;;33.83;19.98;;;8.60;99.90;;;;;;5092606;28;20493;-78
2022/01/04 06:15:07;;;;;;;35.92;21.55;;;8.70;99.90;;;;;;5092990;28;20023;-77
2022/01/04 06:17:35;;;;;;;38.65;21.25;;;8.70;99.90;;;;;;5074635;28;20078;-77
2022/01/04 06:20:04;;;;;;;40.55;22.17;;;8.70;99.90;;;;;;5074484;28;20030;-77
2022/01/04 06:22:30;;;;;;;36.75;21.58;;;8.70;99.90;;;;;;5074616;28;20059;-77
2022/01/04 06:24:56;;;;;;;44.55;22.25;;;8.60;99.90;;;;;;5092355;28;20056;-77
2022/01/04 06:27:22;;;;;;;39.88;22.13;;;8.60;99.90;;;;;;5092798;28;20051;-77
2022/01/04 06:29:48;;;;;;;45.70;22.55;;;8.60;99.90;;;;;;5092338;28;20024;-77
2022/01/04 06:32:14;;;;;;;42.60;24.10;;;8.60;99.90;;;;;;5092598;28;20458;-77
2022/01/04 06:34:41;;;;;;;42.95;22.35;;;8.60;99.90;;;;;;5092320;28;20075;-77
2022/01/04 06:37:08;;;;;;;38.58;22.02;;;8.60;99.90;;;;;;5092516;28;20154;-77
2022/01/04 06:39:33;;;;;;;45.38;25.30;;;8.60;99.90;;;;;;5083701;28;20028;-77
2022/01/04 06:41:59;;;;;;;45.05;23.83;;;8.50;99.90;;;;;;5092394;28;20093;-77
2022/01/04 06:44:25;;;;;;;45.38;24.45;;;8.60;99.90;;;;;;5092157;28;20359;-77
2022/01/04 06:46:51;;;;;;;46.00;24.08;;;8.50;99.90;;;;;;5092390;28;20104;-77
2022/01/04 06:49:18;;;;;;;42.58;23.70;;;8.60;99.90;;;;;;5092194;28;20304;-77
2022/01/04 06:51:46;;;;;;;42.10;23.88;;;8.60;99.90;;;;;;5074146;28;20035;-77
2022/01/04 06:54:13;;;;;;;41.63;23.58;;;8.60;99.90;;;;;;5092069;28;20055;-77
2022/01/04 06:56:39;;;;;;;43.15;24.70;;;8.60;99.90;;;;;;5092301;28;20374;-77
2022/01/04 06:59:06;;;;;;;42.97;23.98;;;8.60;99.90;;;;;;5092078;28;20043;-77
2022/01/04 07:01:36;;;;;;;44.00;24.80;;;8.50;99.90;;;;;;5091963;28;20592;-78
2022/01/04 07:04:02;;;;;;;44.10;25.35;;;8.50;99.90;;;;;;5092062;28;20024;-78
2022/01/04 07:06:28;;;;;;;43.67;24.10;;;8.50;99.90;;;;;;5092125;28;20028;-77
2022/01/04 07:08:54;;;;;;;41.90;22.63;;;8.50;99.90;;;;;;5091815;28;20028;-77
2022/01/04 07:11:20;;;;;;;48.88;24.25;;;8.50;99.90;;;;;;5090904;28;20095;-77
2022/01/04 07:13:45;;;;;;;45.38;23.63;;;8.50;99.90;;;;;;5073643;28;20025;-77
2022/01/04 07:16:11;;;;;;;39.20;22.85;;;8.50;99.90;;;;;;5091715;28;20043;-77
2022/01/04 07:18:37;;;;;;;46.90;23.70;;;8.50;99.90;;;;;;5073700;28;20028;-77
2022/01/04 07:21:03;;;;;;;40.17;22.45;;;8.50;99.90;;;;;;5091873;28;20043;-77
2022/01/04 07:23:29;;;;;;;42.17;22.65;;;8.40;99.90;;;;;;5073435;28;20024;-76
2022/01/04 07:25:55;;;;;;;41.67;23.48;;;8.40;99.90;;;;;;5081996;28;20361;-77
2022/01/04 07:28:21;;;;;;;39.40;22.00;;;8.40;99.90;;;;;;5091283;28;20123;-77
2022/01/04 07:30:47;;;;;;;42.10;22.98;;;8.40;99.90;;;;;;5091832;28;20027;-77
2022/01/04 07:33:13;;;;;;;42.53;23.88;;;8.40;99.90;;;;;;5091907;28;20405;-77
2022/01/04 07:35:39;;;;;;;40.35;22.52;;;8.40;99.90;;;;;;5091643;28;20146;-77
2022/01/04 07:38:05;;;;;;;35.78;22.20;;;8.40;99.90;;;;;;5081668;28;20111;-77
2022/01/04 07:40:31;;;;;;;37.00;21.73;;;8.40;99.90;;;;;;5088275;28;20099;-77
2022/01/04 07:42:59;;;;;;;40.17;21.80;;;8.40;99.90;;;;;;5090641;28;20035;-77
2022/01/04 07:45:30;;;;;;;39.70;20.95;;;8.40;99.90;;;;;;5091518;28;20103;-77
2022/01/04 07:47:56;;;;;;;36.65;20.42;;;8.40;99.90;;;;;;5091643;28;20056;-77
2022/01/04 07:50:22;;;;;;;36.20;21.23;;;8.40;99.90;;;;;;5091452;28;20028;-77
2022/01/04 07:52:48;;;;;;;40.90;22.85;;;8.40;99.90;;;;;;5073292;28;20047;-77
2022/01/04 07:55:14;;;;;;;42.72;22.75;;;8.50;99.90;;;;;;5073264;28;20044;-77
2022/01/04 07:57:41;;;;;;;41.65;21.85;;;8.50;99.90;;;;;;5091583;28;20131;-77
2022/01/04 08:00:09;;;;;;;41.38;23.65;;;8.50;99.90;;;;;;5091447;28;20101;-77
2022/01/04 08:02:34;;;;;;;44.10;23.60;;;8.50;99.90;;;;;;5089086;28;20392;-78
2022/01/04 08:05:00;;;;;;;38.50;22.48;;;8.40;99.90;;;;;;5101758;28;20118;-77
2022/01/04 08:07:27;;;;;;;41.67;22.80;;;8.40;99.90;;;;;;5101679;28;20103;-77
2022/01/04 08:09:53;;;;;;;39.72;22.27;;;8.40;99.90;;;;;;5090188;28;20449;-77
2022/01/04 08:12:19;;;;;;;43.00;22.67;;;8.40;99.90;;;;;;5098377;28;20016;-77
2022/01/04 08:14:45;;;;;;;36.88;21.60;;;8.40;99.90;;;;;;5106698;28;20024;-77
2022/01/04 08:17:11;;;;;;;41.28;23.02;;;8.40;99.90;;;;;;5107000;28;20578;-77
2022/01/04 08:19:37;;;;;;;42.33;23.55;;;8.40;99.90;;;;;;5106089;28;20532;-77
2022/01/04 08:22:03;;;;;;;41.60;23.02;;;8.40;99.90;;;;;;5107015;28;20110;-77
2022/01/04 08:24:29;;;;;;;41.30;23.75;;;8.40;99.90;;;;;;5106574;28;20032;-78
2022/01/04 08:26:54;;;;;;;46.80;24.75;;;8.40;99.90;;;;;;5106600;28;20505;-77
2022/01/04 08:29:20;;;;;;;44.95;25.20;;;8.40;99.90;;;;;;5105569;28;20038;-78
2022/01/04 08:31:46;;;;;;;43.97;24.17;;;8.40;99.90;;;;;;5110592;28;20019;-77
2022/01/04 08:34:11;;;;;;;46.50;26.52;;;8.50;99.90;;;;;;5098069;28;20023;-77
2022/01/04 08:36:38;;;;;;;46.70;25.17;;;8.50;99.90;;;;;;5099675;28;20078;-77
2022/01/04 08:39:04;;;;;;;47.67;25.60;;;8.50;99.90;;;;;;5097879;28;20027;-77
2022/01/04 08:41:30;;;;;;;46.97;26.00;;;8.40;99.90;;;;;;5097940;28;20174;-78
2022/01/04 08:43:55;;;;;;;51.97;25.52;;;8.50;99.90;;;;;;5103407;28;20027;-77
2022/01/04 08:46:22;;;;;;;50.85;26.13;;;8.50;99.90;;;;;;5110239;28;20019;-78
2022/01/04 08:48:48;;;;;;;43.88;24.27;;;8.50;99.90;;;;;;5107856;28;20018;-79
2022/01/04 08:51:14;;;;;;;47.83;24.83;;;8.50;99.90;;;;;;5106246;28;20455;-77
2022/01/04 08:53:40;;;;;;;47.13;26.77;;;8.50;99.90;;;;;;5103141;28;20016;-77
2022/01/04 08:56:06;;;;;;;52.55;27.13;;;8.60;99.90;;;;;;5104582;28;20428;-78
2022/01/04 08:58:32;;;;;;;45.13;25.50;;;8.50;99.90;;;;;;5097193;28;20111;-76
2022/01/04 09:00:57;;;;;;;45.92;24.63;;;8.50;99.90;;;;;;5094906;28;20104;-78
2022/01/04 09:03:26;;;;;;;48.97;24.52;;;8.50;99.90;;;;;;5076204;28;20411;-78
2022/01/04 09:05:52;;;;;;;46.92;25.80;;;8.60;99.90;;;;;;5094446;28;20016;-78
2022/01/04 09:08:18;;;;;;;40.40;22.30;;;8.60;99.90;;;;;;5094396;28;20400;-78
2022/01/04 09:10:43;;;;;;;45.53;23.52;;;8.50;99.90;;;;;;5079025;28;20032;-78
2022/01/04 09:13:18;;;;;;;40.38;22.15;;;8.60;99.90;;;;;;5074220;28;20147;-77
2022/01/04 09:18:48;;;;;;;39.45;20.02;;;8.60;99.90;;;;;;5011840;28;20038;-77
2022/01/04 09:21:18;;;;;;;40.90;21.85;;;8.60;99.90;;;;;;5011991;28;20046;-79
2022/01/04 09:23:45;;;;;;;38.97;21.75;;;8.70;99.90;;;;;;5012103;28;20037;-78
2022/01/04 09:26:12;;;;;;;39.30;21.52;;;8.70;99.90;;;;;;5010645;28;20071;-76
2022/01/04 09:28:37;;;;;;;42.40;22.38;;;8.70;99.90;;;;;;5011689;28;20033;-78
2022/01/04 09:31:04;;;;;;;40.08;21.88;;;8.70;99.90;;;;;;5012234;28;20030;-77
2022/01/04 09:33:30;;;;;;;33.50;19.88;;;8.70;99.90;;;;;;5011927;28;20030;-77
2022/01/04 09:35:56;;;;;;;35.60;20.45;;;8.70;99.90;;;;;;5011944;28;20053;-77
2022/01/04 09:38:22;;;;;;;37.08;18.60;;;8.70;99.90;;;;;;5011293;28;20539;-77
2022/01/04 09:40:51;;;;;;;31.73;16.67;;;8.70;99.90;;;;;;5012169;28;20149;-77
2022/01/04 09:43:18;;;;;;;35.17;17.85;;;8.80;99.90;;;;;;5011882;28;20045;-77
2022/01/04 09:45:43;;;;;;;29.35;16.50;;;8.80;99.90;;;;;;5015056;28;20380;-77
2022/01/04 09:48:09;;;;;;;25.42;15.25;;;8.70;99.90;;;;;;5031502;28;20034;-76
2022/01/04 09:50:37;;;;;;;27.67;15.50;;;8.60;99.90;;;;;;4998249;28;20026;-77
2022/01/04 09:53:06;;;;;;;23.75;12.60;;;8.70;99.90;;;;;;5011475;28;20379;-76
2022/01/04 09:55:34;;;;;;;21.23;12.02;;;8.70;99.90;;;;;;5042543;28;20064;-77
2022/01/04 09:58:00;;;;;;;24.50;13.30;;;8.70;99.90;;;;;;5101656;28;20016;-77
2022/01/04 10:00:26;;;;;;;21.13;11.38;;;8.60;99.90;;;;;;5107617;28;20028;-77
2022/01/04 10:02:52;;;;;;;19.10;9.60;;;8.70;99.90;;;;;;5096672;28;20028;-77
2022/01/04 10:05:29;;;;;;;14.77;8.32;;;8.70;99.90;;;;;;5107605;28;20015;-78
2022/01/04 10:08:03;;;;;;;14.32;8.07;;;8.80;99.90;;;;;;5098681;28;20020;-77
2022/01/04 10:10:30;;;;;;;13.63;7.55;;;8.70;99.90;;;;;;5072326;28;20024;-77
2022/01/04 10:12:59;;;;;;;11.00;6.20;;;8.80;99.90;;;;;;5088572;28;20016;-77
2022/01/04 10:15:35;;;;;;;11.85;5.70;;;8.80;99.90;;;;;;5093625;28;20024;-77
2022/01/04 10:18:17;;;;;;;9.65;4.72;;;8.80;99.90;;;;;;5074160;28;20028;-78
2022/01/04 10:20:52;;;;;;;7.35;4.28;;;8.80;99.90;;;;;;5093805;28;20103;-79
2022/01/04 10:23:22;;;;;;;7.90;3.63;;;8.90;99.90;;;;;;5093549;28;20767;-78
2022/01/04 10:25:50;;;;;;;5.70;3.42;;;8.90;99.90;;;;;;5093265;28;20733;-78
2022/01/04 10:28:36;;;;;;;6.10;3.20;;;8.90;99.90;;;;;;5093380;28;20438;-78
2022/01/04 10:31:05;;;;;;;5.03;2.33;;;8.90;99.90;;;;;;5108168;28;20121;-78
2022/01/04 10:33:33;;;;;;;3.85;2.28;;;9.00;99.90;;;;;;5091943;28;20035;-77
2022/01/04 10:36:01;;;;;;;5.57;2.40;;;9.00;99.90;;;;;;5106774;28;20050;-77
2022/01/04 10:38:30;;;;;;;7.63;2.50;;;9.00;99.90;;;;;;5094048;28;20453;-78
2022/01/04 10:41:03;;;;;;;4.85;2.45;;;9.00;99.90;;;;;;5104770;28;20486;-77
2022/01/04 10:43:36;;;;;;;4.95;2.30;;;9.00;99.90;;;;;;5085936;28;20027;-78
2022/01/04 10:46:03;;;;;;;3.95;2.50;;;8.90;99.90;;;;;;5104492;28;20062;-78
2022/01/04 10:48:31;;;;;;;5.35;3.03;;;8.90;99.90;;;;;;5105474;28;20016;-78
2022/01/04 10:50:58;;;;;;;7.00;3.00;;;8.90;99.90;;;;;;5103631;28;20039;-78
2022/01/04 10:53:29;;;;;;;5.13;3.22;;;8.90;99.90;;;;;;5112268;28;20027;-78
2022/01/04 10:56:13;;;;;;;8.03;3.90;;;8.90;99.90;;;;;;5102574;28;20427;-78
2022/01/04 10:58:50;;;;;;;7.47;4.07;;;8.90;99.90;;;;;;5087150;28;20165;-77
2022/01/04 11:01:19;;;;;;;8.27;3.95;;;8.70;99.90;;;;;;5084631;28;20028;-77
2022/01/04 11:03:47;;;;;;;11.57;5.03;;;8.60;99.90;;;;;;5088752;28;20030;-77
2022/01/04 11:06:19;;;;;;;7.25;4.78;;;8.60;99.90;;;;;;5112369;28;20031;-77
2022/01/04 11:08:45;;;;;;;11.77;4.95;;;8.60;99.90;;;;;;5112392;28;20020;-79
2022/01/04 11:11:11;;;;;;;11.77;5.93;;;8.60;99.90;;;;;;5100235;28;20473;-78
2022/01/04 11:13:37;;;;;;;10.45;5.82;;;8.60;99.90;;;;;;5104435;28;20062;-78
2022/01/04 11:16:04;;;;;;;14.77;6.38;;;8.60;99.90;;;;;;5102573;28;20533;-78
2022/01/04 11:18:31;;;;;;;12.32;7.28;;;8.70;99.90;;;;;;5088099;28;20024;-78
2022/01/04 11:20:57;;;;;;;12.88;6.35;;;8.80;99.90;;;;;;5082609;28;20546;-77
2022/01/04 11:23:31;;;;;;;11.55;5.88;;;8.90;99.90;;;;;;5104802;28;20072;-78
2022/01/04 11:25:59;;;;;;;10.88;5.60;;;8.90;99.90;;;;;;5093658;28;20031;-78
2022/01/04 11:28:26;;;;;;;14.68;6.82;;;8.90;99.90;;;;;;5111625;28;20032;-78
2022/01/04 11:30:56;;;;;;;11.48;6.43;;;9.00;99.90;;;;;;5111772;28;20027;-78
2022/01/04 11:33:47;;;;;;;15.95;6.47;;;9.00;99.90;;;;;;5111884;28;20110;-78
2022/01/04 11:36:14;;;;;;;18.35;6.15;;;9.20;99.90;;;;;;5111934;28;20779;-76
2022/01/04 11:38:40;;;;;;;16.38;7.13;;;9.20;99.90;;;;;;5101772;28;20036;-77
2022/01/04 11:41:06;;;;;;;11.75;6.47;;;9.20;99.90;;;;;;5091739;28;20081;-77
2022/01/04 11:43:40;;;;;;;11.18;6.28;;;9.30;99.90;;;;;;5091525;28;20536;-77
2022/01/04 11:46:06;;;;;;;14.23;7.50;;;9.10;99.90;;;;;;5091348;28;20035;-77
2022/01/04 11:48:40;;;;;;;15.10;7.07;;;9.00;99.90;;;;;;5102295;28;20373;-77
2022/01/04 11:51:27;;;;;;;19.63;7.03;;;9.10;99.90;;;;;;5100537;28;20520;-77
2022/01/04 11:54:22;;;;;;;16.98;8.13;;;9.10;99.90;;;;;;5083615;28;20035;-77
2022/01/04 11:57:09;;;;;;;16.17;8.05;;;9.00;99.90;;;;;;5097399;28;20377;-77
2022/01/04 11:59:44;;;;;;;18.13;9.88;;;9.00;99.90;;;;;;5082830;28;20115;-77
2022/01/04 12:02:39;;;;;;;13.60;4.88;;;9.20;99.90;;;;;;5103903;28;20098;-78
2022/01/04 12:05:25;;;;;;;13.88;4.93;;;9.20;99.90;;;;;;5100825;28;20036;-78
2022/01/04 12:07:52;;;;;;;7.93;1.65;;;9.10;99.90;;;;;;5096998;28;20039;-78
2022/01/04 12:10:18;;;;;;;3.75;1.15;;;9.10;99.90;;;;;;5104079;28;20140;-78
2022/01/04 12:12:53;;;;;;;4.25;0.90;;;9.00;99.90;;;;;;5102315;28;20166;-77
2022/01/04 12:15:43;;;;;;;3.92;1.63;;;9.00;99.90;;;;;;5098311;28;20138;-78
2022/01/04 12:18:32;;;;;;;5.68;1.40;;;9.10;99.90;;;;;;5105082;28;20102;-77
2022/01/04 12:21:22;;;;;;;29.75;11.93;;;9.10;99.90;;;;;;5106995;28;20098;-78
2022/01/04 12:23:48;;;;;;;47.22;20.45;;;9.20;99.90;;;;;;5103399;28;20054;-77
2022/01/04 12:26:14;;;;;;;13.07;5.15;;;9.20;99.90;;;;;;5104701;28;20047;-77
2022/01/04 12:28:41;;;;;;;16.10;6.05;;;9.10;99.90;;;;;;5102928;28;20020;-77
2022/01/04 12:31:13;;;;;;;6.20;2.88;;;9.20;99.90;;;;;;5105136;28;20049;-77
2022/01/04 12:33:46;;;;;;;8.38;3.47;;;9.20;99.90;;;;;;5100761;28;20418;-77
2022/01/04 12:36:30;;;;;;;6.90;1.75;;;9.30;99.90;;;;;;5094736;28;20048;-77
2022/01/04 12:39:01;;;;;;;9.10;2.13;;;9.00;99.90;;;;;;5097008;28;20417;-77
2022/01/04 12:41:27;;;;;;;5.07;1.85;;;8.80;99.90;;;;;;5098859;28;20051;-78
2022/01/04 12:43:53;;;;;;;12.02;1.90;;;8.70;99.90;;;;;;5095984;28;20033;-78
2022/01/04 12:46:29;;;;;;;4.70;2.33;;;8.50;99.90;;;;;;5080553;28;20589;-78
2022/01/04 12:48:57;;;;;;;5.15;2.13;;;8.50;99.90;;;;;;5082752;28;20112;-78
2022/01/04 12:51:30;;;;;;;5.75;2.20;;;8.40;99.90;;;;;;5083593;28;20020;-78